sensor_id;sensor_type;location;lat;lon;timestamp;pressure;altitude;pressure_sealevel;temperature;humidity
45523;BME280;31254;51.680;5.394;2023-03-25T00:01:34;100209.97;;;9.82;84.50
45523;BME280;31254;51.680;5.394;2023-03-25T00:04:03;100209.66;;;9.85;84.45
45523;BME280;31254;51.680;5.394;2023-03-25T00:06:32;100152.75;;;9.48;84.39
45523;BME280;31254;51.680;5.394;2023-03-25T00:09:00;100221.94;;;9.89;84.25
45523;BME280;31254;51.680;5.394;2023-03-25T00:11:28;100161.13;;;9.55;84.56
45523;BME280;31254;51.680;5.394;2023-03-25T00:13:54;100072.06;;;8.94;84.30
45523;BME280;31254;51.680;5.394;2023-03-25T00:16:21;100163.47;;;9.49;84.36
45523;BME280;31254;51.680;5.394;2023-03-25T00:18:48;100163.63;;;9.48;83.96
45523;BME280;31254;51.680;5.394;2023-03-25T00:21:16;100162.34;;;9.60;83.89
45523;BME280;31254;51.680;5.394;2023-03-25T00:23:47;100165.88;;;9.52;83.98
45523;BME280;31254;51.680;5.394;2023-03-25T00:26:16;100168.09;;;9.57;83.62
45523;BME280;31254;51.680;5.394;2023-03-25T00:28:43;100219.41;;;9.88;83.89
45523;BME280;31254;51.680;5.394;2023-03-25T00:31:13;100142.16;;;9.45;83.98
45523;BME280;31254;51.680;5.394;2023-03-25T00:33:41;100229.25;;;9.89;83.61
45523;BME280;31254;51.680;5.394;2023-03-25T00:36:11;100230.28;;;9.88;83.55
45523;BME280;31254;51.680;5.394;2023-03-25T00:38:43;100224.84;;;9.88;83.99
45523;BME280;31254;51.680;5.394;2023-03-25T00:43:49;100156.63;;;9.45;83.48
45523;BME280;31254;51.680;5.394;2023-03-25T00:46:16;100213.41;;;9.84;83.63
45523;BME280;31254;51.680;5.394;2023-03-25T00:48:43;100201.28;;;9.79;83.92
45523;BME280;31254;51.680;5.394;2023-03-25T00:51:10;100124.00;;;9.27;83.19
45523;BME280;31254;51.680;5.394;2023-03-25T00:53:39;100222.59;;;9.83;83.73
45523;BME280;31254;51.680;5.394;2023-03-25T00:56:06;100227.16;;;9.83;83.80
45523;BME280;31254;51.680;5.394;2023-03-25T00:58:33;100210.81;;;9.83;83.55
45523;BME280;31254;51.680;5.394;2023-03-25T01:01:13;100150.66;;;9.42;83.41
45523;BME280;31254;51.680;5.394;2023-03-25T01:03:42;100164.78;;;9.45;83.19
45523;BME280;31254;51.680;5.394;2023-03-25T01:06:15;100140.56;;;9.34;83.45
45523;BME280;31254;51.680;5.394;2023-03-25T01:08:43;100146.88;;;9.35;83.17
45523;BME280;31254;51.680;5.394;2023-03-25T01:11:19;100220.19;;;9.80;83.04
45523;BME280;31254;51.680;5.394;2023-03-25T01:13:47;100213.50;;;9.75;82.93
45523;BME280;31254;51.680;5.394;2023-03-25T01:16:16;100141.44;;;9.35;83.12
45523;BME280;31254;51.680;5.394;2023-03-25T01:18:43;100196.25;;;9.66;83.03
45523;BME280;31254;51.680;5.394;2023-03-25T01:21:13;100204.97;;;9.69;83.24
45523;BME280;31254;51.680;5.394;2023-03-25T01:23:40;100214.91;;;9.79;82.76
45523;BME280;31254;51.680;5.394;2023-03-25T01:26:07;100203.09;;;9.70;83.37
45523;BME280;31254;51.680;5.394;2023-03-25T01:28:33;100198.97;;;9.66;83.06
45523;BME280;31254;51.680;5.394;2023-03-25T01:31:02;100208.06;;;9.75;83.08
45523;BME280;31254;51.680;5.394;2023-03-25T01:33:29;100142.91;;;9.29;83.19
45523;BME280;31254;51.680;5.394;2023-03-25T01:35:59;100208.22;;;9.73;83.08
45523;BME280;31254;51.680;5.394;2023-03-25T01:38:36;100216.00;;;9.68;83.26
45523;BME280;31254;51.680;5.394;2023-03-25T01:41:03;100215.97;;;9.60;83.91
45523;BME280;31254;51.680;5.394;2023-03-25T01:43:30;100216.28;;;9.57;83.79
45523;BME280;31254;51.680;5.394;2023-03-25T01:45:57;100208.03;;;9.48;83.91
45523;BME280;31254;51.680;5.394;2023-03-25T01:48:28;100189.16;;;9.47;84.22
45523;BME280;31254;51.680;5.394;2023-03-25T01:51:13;100205.38;;;9.57;84.19
45523;BME280;31254;51.680;5.394;2023-03-25T01:53:45;100206.41;;;9.56;84.16
45523;BME280;31254;51.680;5.394;2023-03-25T01:56:15;100215.59;;;9.55;83.97
45523;BME280;31254;51.680;5.394;2023-03-25T01:58:45;100191.66;;;9.40;84.04
45523;BME280;31254;51.680;5.394;2023-03-25T02:01:12;100177.13;;;9.31;84.53
45523;BME280;31254;51.680;5.394;2023-03-25T02:03:44;100207.28;;;9.38;84.68
45523;BME280;31254;51.680;5.394;2023-03-25T02:06:26;100173.09;;;9.18;84.54
45523;BME280;31254;51.680;5.394;2023-03-25T02:08:57;100174.09;;;9.17;84.38
45523;BME280;31254;51.680;5.394;2023-03-25T02:11:27;100192.22;;;9.26;84.99
45523;BME280;31254;51.680;5.394;2023-03-25T02:14:01;100180.63;;;9.24;84.94
45523;BME280;31254;51.680;5.394;2023-03-25T02:17:11;100182.03;;;9.10;85.55
45523;BME280;31254;51.680;5.394;2023-03-25T02:28:22;100182.03;;;9.10;85.22
45523;BME280;31254;51.680;5.394;2023-03-25T02:39:46;100179.78;;;9.23;85.03
45523;BME280;31254;51.680;5.394;2023-03-25T02:45:08;100169.38;;;9.19;84.98
45523;BME280;31254;51.680;5.394;2023-03-25T02:47:45;100183.34;;;9.24;85.09
45523;BME280;31254;51.680;5.394;2023-03-25T02:50:16;100164.88;;;9.09;85.04
45523;BME280;31254;51.680;5.394;2023-03-25T02:52:51;100180.25;;;9.19;85.51
45523;BME280;31254;51.680;5.394;2023-03-25T02:55:20;100178.75;;;9.24;85.34
45523;BME280;31254;51.680;5.394;2023-03-25T02:57:50;100181.47;;;9.24;85.74
45523;BME280;31254;51.680;5.394;2023-03-25T03:00:22;100176.88;;;9.25;85.68
45523;BME280;31254;51.680;5.394;2023-03-25T03:02:53;100175.88;;;9.26;85.48
45523;BME280;31254;51.680;5.394;2023-03-25T03:05:27;100174.16;;;9.25;85.59
45523;BME280;31254;51.680;5.394;2023-03-25T03:19:19;100180.31;;;9.27;85.73
45523;BME280;31254;51.680;5.394;2023-03-25T03:24:58;100153.50;;;9.14;85.33
45523;BME280;31254;51.680;5.394;2023-03-25T03:30:06;100187.44;;;9.28;85.45
45523;BME280;31254;51.680;5.394;2023-03-25T03:32:51;100154.13;;;9.08;85.41
45523;BME280;31254;51.680;5.394;2023-03-25T03:35:38;100182.31;;;9.25;85.57
45523;BME280;31254;51.680;5.394;2023-03-25T03:38:09;100168.81;;;9.15;85.68
45523;BME280;31254;51.680;5.394;2023-03-25T03:40:44;100171.16;;;9.10;85.86
45523;BME280;31254;51.680;5.394;2023-03-25T03:45:54;100171.53;;;9.15;86.19
45523;BME280;31254;51.680;5.394;2023-03-25T03:48:32;100175.81;;;9.18;86.30
45523;BME280;31254;51.680;5.394;2023-03-25T03:51:05;100114.22;;;8.72;86.35
45523;BME280;31254;51.680;5.394;2023-03-25T03:53:41;100159.72;;;9.06;86.68
45523;BME280;31254;51.680;5.394;2023-03-25T03:56:16;100125.69;;;8.84;86.59
45523;BME280;31254;51.680;5.394;2023-03-25T03:58:52;100068.34;;;8.41;86.85
45523;BME280;31254;51.680;5.394;2023-03-25T04:01:34;100133.00;;;8.84;86.48
45523;BME280;31254;51.680;5.394;2023-03-25T04:04:21;100167.19;;;9.04;86.96
45523;BME280;31254;51.680;5.394;2023-03-25T04:07:00;100162.75;;;9.03;87.01
45523;BME280;31254;51.680;5.394;2023-03-25T04:09:40;100150.44;;;8.91;86.92
45523;BME280;31254;51.680;5.394;2023-03-25T04:12:30;100160.19;;;9.02;86.86
45523;BME280;31254;51.680;5.394;2023-03-25T04:15:04;100150.97;;;8.94;86.64
45523;BME280;31254;51.680;5.394;2023-03-25T04:17:34;100162.44;;;9.06;87.03
45523;BME280;31254;51.680;5.394;2023-03-25T04:20:05;100157.84;;;9.07;86.95
45523;BME280;31254;51.680;5.394;2023-03-25T04:22:34;100160.72;;;9.05;86.71
45523;BME280;31254;51.680;5.394;2023-03-25T04:25:13;100153.28;;;9.07;86.85
45523;BME280;31254;51.680;5.394;2023-03-25T04:27:45;100166.09;;;9.15;86.14
45523;BME280;31254;51.680;5.394;2023-03-25T04:30:14;100147.75;;;8.81;87.14
45523;BME280;31254;51.680;5.394;2023-03-25T04:32:46;100170.69;;;8.96;87.42
45523;BME280;31254;51.680;5.394;2023-03-25T04:35:16;100163.53;;;8.95;87.10
45523;BME280;31254;51.680;5.394;2023-03-25T04:37:45;100167.50;;;9.01;87.48
45523;BME280;31254;51.680;5.394;2023-03-25T04:40:17;100173.81;;;9.02;87.00
45523;BME280;31254;51.680;5.394;2023-03-25T04:42:45;100149.31;;;8.84;87.10
45523;BME280;31254;51.680;5.394;2023-03-25T04:45:13;100173.09;;;9.00;87.17
45523;BME280;31254;51.680;5.394;2023-03-25T04:47:47;100182.13;;;9.00;87.07
45523;BME280;31254;51.680;5.394;2023-03-25T04:50:20;100126.28;;;8.70;87.46
45523;BME280;31254;51.680;5.394;2023-03-25T04:52:49;100165.88;;;8.90;87.53
45523;BME280;31254;51.680;5.394;2023-03-25T04:55:16;100101.47;;;8.55;87.13
45523;BME280;31254;51.680;5.394;2023-03-25T04:57:50;100172.41;;;8.98;87.41
45523;BME280;31254;51.680;5.394;2023-03-25T05:00:22;100152.75;;;8.86;87.54
45523;BME280;31254;51.680;5.394;2023-03-25T05:02:52;100179.00;;;8.95;87.44
45523;BME280;31254;51.680;5.394;2023-03-25T05:05:23;100152.19;;;8.82;87.44
45523;BME280;31254;51.680;5.394;2023-03-25T05:07:53;100176.97;;;8.97;87.51
45523;BME280;31254;51.680;5.394;2023-03-25T05:10:22;100157.88;;;8.89;87.45
45523;BME280;31254;51.680;5.394;2023-03-25T05:12:49;100168.13;;;8.95;87.19
45523;BME280;31254;51.680;5.394;2023-03-25T05:15:18;100178.16;;;8.94;87.55
45523;BME280;31254;51.680;5.394;2023-03-25T05:17:44;100191.94;;;8.93;87.65
45523;BME280;31254;51.680;5.394;2023-03-25T05:20:11;100142.47;;;8.62;87.42
45523;BME280;31254;51.680;5.394;2023-03-25T05:22:41;100179.31;;;8.92;87.69
45523;BME280;31254;51.680;5.394;2023-03-25T05:25:09;100170.47;;;8.90;87.90
45523;BME280;31254;51.680;5.394;2023-03-25T05:27:38;100169.78;;;8.88;87.65
45523;BME280;31254;51.680;5.394;2023-03-25T05:30:08;100158.91;;;8.70;87.85
45523;BME280;31254;51.680;5.394;2023-03-25T05:32:35;100169.19;;;8.66;88.22
45523;BME280;31254;51.680;5.394;2023-03-25T05:35:03;100134.16;;;8.45;88.07
45523;BME280;31254;51.680;5.394;2023-03-25T05:37:32;100200.16;;;8.83;88.21
45523;BME280;31254;51.680;5.394;2023-03-25T05:39:59;100168.50;;;8.64;88.01
45523;BME280;31254;51.680;5.394;2023-03-25T05:42:40;100189.44;;;8.82;87.93
45523;BME280;31254;51.680;5.394;2023-03-25T05:45:12;100144.72;;;8.48;88.53
45523;BME280;31254;51.680;5.394;2023-03-25T05:47:39;100185.53;;;8.66;88.82
45523;BME280;31254;51.680;5.394;2023-03-25T05:50:07;100201.22;;;8.72;88.28
45523;BME280;31254;51.680;5.394;2023-03-25T05:52:36;100197.97;;;8.69;88.58
45523;BME280;31254;51.680;5.394;2023-03-25T05:55:10;100192.75;;;8.75;88.38
45523;BME280;31254;51.680;5.394;2023-03-25T05:57:38;100199.34;;;8.73;88.43
45523;BME280;31254;51.680;5.394;2023-03-25T06:00:05;100199.69;;;8.70;88.72
45523;BME280;31254;51.680;5.394;2023-03-25T06:02:34;100198.44;;;8.64;88.52
45523;BME280;31254;51.680;5.394;2023-03-25T06:05:06;100171.78;;;8.40;88.72
45523;BME280;31254;51.680;5.394;2023-03-25T06:07:35;100212.16;;;8.63;88.58
45523;BME280;31254;51.680;5.394;2023-03-25T06:10:03;100213.16;;;8.62;88.44
45523;BME280;31254;51.680;5.394;2023-03-25T06:12:30;100215.03;;;8.61;88.85
45523;BME280;31254;51.680;5.394;2023-03-25T06:15:09;100201.34;;;8.53;88.33
45523;BME280;31254;51.680;5.394;2023-03-25T06:17:36;100194.69;;;8.37;88.42
45523;BME280;31254;51.680;5.394;2023-03-25T06:20:08;100225.75;;;8.63;88.77
45523;BME280;31254;51.680;5.394;2023-03-25T06:22:39;100201.34;;;8.53;88.42
45523;BME280;31254;51.680;5.394;2023-03-25T06:25:13;100202.34;;;8.52;88.31
45523;BME280;31254;51.680;5.394;2023-03-25T06:27:46;100100.28;;;7.94;88.00
45523;BME280;31254;51.680;5.394;2023-03-25T06:30:20;100220.25;;;8.72;87.99
45523;BME280;31254;51.680;5.394;2023-03-25T06:32:47;100224.56;;;8.75;87.97
45523;BME280;31254;51.680;5.394;2023-03-25T06:35:19;100223.22;;;8.79;87.98
45523;BME280;31254;51.680;5.394;2023-03-25T06:37:46;100115.91;;;8.28;87.33
45523;BME280;31254;51.680;5.394;2023-03-25T06:40:14;100224.50;;;9.03;86.89
45523;BME280;31254;51.680;5.394;2023-03-25T06:42:41;100228.84;;;9.13;86.32
45523;BME280;31254;51.680;5.394;2023-03-25T06:45:11;100140.31;;;8.65;86.38
45523;BME280;31254;51.680;5.394;2023-03-25T06:47:41;100225.78;;;9.17;86.34
45523;BME280;31254;51.680;5.394;2023-03-25T06:50:08;100234.38;;;9.22;86.12
45523;BME280;31254;51.680;5.394;2023-03-25T06:52:35;100237.09;;;9.22;86.21
45523;BME280;31254;51.680;5.394;2023-03-25T06:55:04;100229.25;;;9.19;85.98
45523;BME280;31254;51.680;5.394;2023-03-25T06:57:31;100230.25;;;9.18;85.95
45523;BME280;31254;51.680;5.394;2023-03-25T06:59:59;100246.88;;;9.32;85.87
45523;BME280;31254;51.680;5.394;2023-03-25T07:02:31;100231.00;;;9.28;86.31
45523;BME280;31254;51.680;5.394;2023-03-25T07:04:57;100232.03;;;9.27;85.96
45523;BME280;31254;51.680;5.394;2023-03-25T07:07:27;100227.97;;;9.31;85.93
45523;BME280;31254;51.680;5.394;2023-03-25T07:09:56;100205.50;;;9.29;85.41
45523;BME280;31254;51.680;5.394;2023-03-25T07:12:23;100221.91;;;9.37;85.84
45523;BME280;31254;51.680;5.394;2023-03-25T07:14:51;100225.22;;;9.49;85.24
45523;BME280;31254;51.680;5.394;2023-03-25T07:17:19;100201.75;;;9.48;84.85
45523;BME280;31254;51.680;5.394;2023-03-25T07:19:46;100239.00;;;9.65;85.13
45523;BME280;31254;51.680;5.394;2023-03-25T07:22:12;100239.53;;;9.69;84.63
45523;BME280;31254;51.680;5.394;2023-03-25T07:24:42;100228.84;;;9.76;84.30
45523;BME280;31254;51.680;5.394;2023-03-25T07:27:13;100239.38;;;9.97;83.80
45523;BME280;31254;51.680;5.394;2023-03-25T07:29:40;100167.00;;;9.42;83.46
45523;BME280;31254;51.680;5.394;2023-03-25T07:32:06;100236.47;;;9.72;84.53
45523;BME280;31254;51.680;5.394;2023-03-25T07:34:35;100253.88;;;9.79;84.81
45523;BME280;31254;51.680;5.394;2023-03-25T07:37:03;100242.41;;;9.67;84.72
45523;BME280;31254;51.680;5.394;2023-03-25T07:39:35;100264.03;;;9.69;84.97
45523;BME280;31254;51.680;5.394;2023-03-25T07:42:04;100242.97;;;9.53;85.43
45523;BME280;31254;51.680;5.394;2023-03-25T07:44:36;100238.69;;;9.50;85.01
45523;BME280;31254;51.680;5.394;2023-03-25T07:47:05;100267.75;;;9.68;85.11
45523;BME280;31254;51.680;5.394;2023-03-25T07:49:34;100280.38;;;9.69;85.25
45523;BME280;31254;51.680;5.394;2023-03-25T07:52:01;100267.97;;;9.75;84.92
45523;BME280;31254;51.680;5.394;2023-03-25T07:54:29;100263.72;;;9.98;84.50
45523;BME280;31254;51.680;5.394;2023-03-25T07:56:56;100258.91;;;10.18;83.69
45523;BME280;31254;51.680;5.394;2023-03-25T07:59:23;100262.50;;;10.19;83.84
45523;BME280;31254;51.680;5.394;2023-03-25T08:01:58;100243.84;;;10.06;83.55
45523;BME280;31254;51.680;5.394;2023-03-25T08:04:25;100245.19;;;10.02;83.61
45523;BME280;31254;51.680;5.394;2023-03-25T08:06:52;100260.56;;;10.11;83.91
45523;BME280;31254;51.680;5.394;2023-03-25T08:09:21;100269.97;;;10.17;84.09
45523;BME280;31254;51.680;5.394;2023-03-25T08:11:50;100261.47;;;10.20;83.75
45523;BME280;31254;51.680;5.394;2023-03-25T08:14:16;100282.53;;;10.70;82.03
45523;BME280;31254;51.680;5.394;2023-03-25T08:16:45;100276.59;;;11.92;78.10
45523;BME280;31254;51.680;5.394;2023-03-25T08:19:12;100258.44;;;12.15;76.00
45523;BME280;31254;51.680;5.394;2023-03-25T08:21:39;100287.00;;;11.47;78.80
45523;BME280;31254;51.680;5.394;2023-03-25T08:24:06;100269.97;;;10.86;80.91
45523;BME280;31254;51.680;5.394;2023-03-25T08:26:33;100258.03;;;10.44;81.65
45523;BME280;31254;51.680;5.394;2023-03-25T08:29:01;100274.25;;;10.46;82.02
45523;BME280;31254;51.680;5.394;2023-03-25T08:31:30;100296.00;;;10.72;82.04
45523;BME280;31254;51.680;5.394;2023-03-25T08:34:01;100291.28;;;10.82;81.98
45523;BME280;31254;51.680;5.394;2023-03-25T08:36:28;100298.09;;;10.78;81.59
45523;BME280;31254;51.680;5.394;2023-03-25T08:38:57;100300.88;;;10.94;81.57
45523;BME280;31254;51.680;5.394;2023-03-25T08:41:26;100265.38;;;10.94;80.96
45523;BME280;31254;51.680;5.394;2023-03-25T08:43:53;100277.22;;;11.20;80.46
45523;BME280;31254;51.680;5.394;2023-03-25T08:46:20;100303.00;;;11.42;79.87
45523;BME280;31254;51.680;5.394;2023-03-25T08:48:46;100297.56;;;11.50;79.28
45523;BME280;31254;51.680;5.394;2023-03-25T08:51:15;100301.97;;;11.18;80.44
45523;BME280;31254;51.680;5.394;2023-03-25T08:53:42;100290.63;;;10.96;81.59
45523;BME280;31254;51.680;5.394;2023-03-25T08:56:09;100136.16;;;9.94;81.76
45523;BME280;31254;51.680;5.394;2023-03-25T08:58:38;100306.50;;;11.01;81.99
45523;BME280;31254;51.680;5.394;2023-03-25T09:01:06;100292.31;;;10.89;82.16
45523;BME280;31254;51.680;5.394;2023-03-25T09:03:33;100295.25;;;11.04;82.33
45523;BME280;31254;51.680;5.394;2023-03-25T09:06:04;100293.34;;;10.96;81.98
45523;BME280;31254;51.680;5.394;2023-03-25T09:08:31;100294.09;;;11.15;82.15
45523;BME280;31254;51.680;5.394;2023-03-25T09:10:58;100301.50;;;11.47;81.01
45523;BME280;31254;51.680;5.394;2023-03-25T09:13:25;100289.91;;;11.45;81.09
45523;BME280;31254;51.680;5.394;2023-03-25T09:15:52;100292.63;;;11.37;81.37
45523;BME280;31254;51.680;5.394;2023-03-25T09:18:19;100284.22;;;11.30;81.96
45523;BME280;31254;51.680;5.394;2023-03-25T09:20:48;100258.47;;;11.33;81.58
45523;BME280;31254;51.680;5.394;2023-03-25T09:23:17;100275.56;;;11.60;80.98
45523;BME280;31254;51.680;5.394;2023-03-25T09:25:44;100288.53;;;11.58;81.15
45523;BME280;31254;51.680;5.394;2023-03-25T09:28:14;100267.38;;;11.76;80.69
45523;BME280;31254;51.680;5.394;2023-03-25T09:30:40;100284.56;;;12.26;78.81
45523;BME280;31254;51.680;5.394;2023-03-25T09:33:09;100295.72;;;12.00;79.69
45523;BME280;31254;51.680;5.394;2023-03-25T09:35:39;100279.31;;;11.75;80.25
45523;BME280;31254;51.680;5.394;2023-03-25T09:38:06;100252.69;;;12.02;79.34
45523;BME280;31254;51.680;5.394;2023-03-25T09:40:35;100285.63;;;12.09;79.35
45523;BME280;31254;51.680;5.394;2023-03-25T09:45:44;100312.63;;;11.95;80.51
45523;BME280;31254;51.680;5.394;2023-03-25T09:50:48;100298.94;;;11.62;81.26
45523;BME280;31254;51.680;5.394;2023-03-25T09:55:52;100306.78;;;11.49;82.01
45523;BME280;31254;51.680;5.394;2023-03-25T10:00:59;100299.09;;;11.28;82.27
45523;BME280;31254;51.680;5.394;2023-03-25T10:03:54;100307.81;;;11.48;81.85
45523;BME280;31254;51.680;5.394;2023-03-25T10:06:26;100297.03;;;11.38;81.74
45523;BME280;31254;51.680;5.394;2023-03-25T10:14:20;100330.38;;;11.66;81.20
45523;BME280;31254;51.680;5.394;2023-03-25T10:19:45;100314.66;;;11.60;81.84
45523;BME280;31254;51.680;5.394;2023-03-25T10:22:34;100336.72;;;12.00;80.42
45523;BME280;31254;51.680;5.394;2023-03-25T10:25:13;100325.16;;;12.62;78.63
45523;BME280;31254;51.680;5.394;2023-03-25T10:27:45;100335.66;;;12.90;78.17
45523;BME280;31254;51.680;5.394;2023-03-25T10:30:33;100327.63;;;13.20;77.89
45523;BME280;31254;51.680;5.394;2023-03-25T10:33:09;100326.19;;;13.40;77.18
45523;BME280;31254;51.680;5.394;2023-03-25T10:35:46;100327.28;;;13.54;76.55
45523;BME280;31254;51.680;5.394;2023-03-25T10:38:17;100331.31;;;13.43;76.79
45523;BME280;31254;51.680;5.394;2023-03-25T10:40:47;100200.44;;;12.68;76.68
45523;BME280;31254;51.680;5.394;2023-03-25T10:43:35;100332.97;;;13.52;76.81
45523;BME280;31254;51.680;5.394;2023-03-25T10:46:17;100341.13;;;13.61;76.61
45523;BME280;31254;51.680;5.394;2023-03-25T10:48:49;100336.97;;;13.65;76.28
45523;BME280;31254;51.680;5.394;2023-03-25T10:51:26;100325.41;;;13.55;75.87
45523;BME280;31254;51.680;5.394;2023-03-25T10:53:56;100338.31;;;13.69;75.57
45523;BME280;31254;51.680;5.394;2023-03-25T10:56:29;100340.13;;;13.77;75.42
45523;BME280;31254;51.680;5.394;2023-03-25T10:59:00;100347.09;;;13.64;75.87
45523;BME280;31254;51.680;5.394;2023-03-25T11:03:59;100334.88;;;13.12;76.85
45523;BME280;31254;51.680;5.394;2023-03-25T11:06:33;100328.66;;;12.87;77.76
45523;BME280;31254;51.680;5.394;2023-03-25T11:09:37;100340.75;;;13.01;77.80
45523;BME280;31254;51.680;5.394;2023-03-25T11:12:08;100358.88;;;13.02;77.75
45523;BME280;31254;51.680;5.394;2023-03-25T11:14:39;100358.22;;;12.92;77.67
45523;BME280;31254;51.680;5.394;2023-03-25T11:17:10;100362.72;;;12.85;77.38
45523;BME280;31254;51.680;5.394;2023-03-25T11:22:30;100281.44;;;12.37;77.04
45523;BME280;31254;51.680;5.394;2023-03-25T11:25:03;100354.34;;;12.86;76.50
45523;BME280;31254;51.680;5.394;2023-03-25T11:27:41;100334.56;;;12.59;76.40
45523;BME280;31254;51.680;5.394;2023-03-25T11:30:15;100354.06;;;12.56;75.92
45523;BME280;31254;51.680;5.394;2023-03-25T11:32:43;100382.19;;;12.90;75.09
45523;BME280;31254;51.680;5.394;2023-03-25T11:35:27;100367.25;;;13.09;74.17
45523;BME280;31254;51.680;5.394;2023-03-25T11:37:57;100349.97;;;13.00;73.40
45523;BME280;31254;51.680;5.394;2023-03-25T11:40:26;100334.03;;;13.04;73.49
45523;BME280;31254;51.680;5.394;2023-03-25T11:42:58;100352.94;;;13.22;73.37
45523;BME280;31254;51.680;5.394;2023-03-25T11:45:36;100368.06;;;13.17;72.97
45523;BME280;31254;51.680;5.394;2023-03-25T11:48:15;100296.84;;;12.86;72.36
45523;BME280;31254;51.680;5.394;2023-03-25T11:50:53;100331.97;;;13.14;72.30
45523;BME280;31254;51.680;5.394;2023-03-25T11:53:20;100361.31;;;13.37;72.52
45523;BME280;31254;51.680;5.394;2023-03-25T11:55:53;100359.72;;;13.42;71.46
45523;BME280;31254;51.680;5.394;2023-03-25T11:58:25;100357.94;;;13.58;71.31
45523;BME280;31254;51.680;5.394;2023-03-25T12:01:05;100351.25;;;13.83;71.29
45523;BME280;31254;51.680;5.394;2023-03-25T12:03:33;100340.75;;;13.87;70.80
45523;BME280;31254;51.680;5.394;2023-03-25T12:06:12;100308.69;;;13.87;70.81
45523;BME280;31254;51.680;5.394;2023-03-25T12:08:50;100345.84;;;14.13;70.44
45523;BME280;31254;51.680;5.394;2023-03-25T12:11:45;100330.22;;;14.14;70.25
45523;BME280;31254;51.680;5.394;2023-03-25T12:14:31;100334.25;;;14.41;69.25
45523;BME280;31254;51.680;5.394;2023-03-25T12:17:09;100325.16;;;14.40;69.00
45523;BME280;31254;51.680;5.394;2023-03-25T12:25:09;100343.28;;;14.12;69.27
45523;BME280;31254;51.680;5.394;2023-03-25T12:49:45;100336.31;;;13.63;69.50
45523;BME280;31254;51.680;5.394;2023-03-25T12:55:08;100349.00;;;13.32;70.13
45523;BME280;31254;51.680;5.394;2023-03-25T13:05:51;100339.94;;;13.24;67.82
45523;BME280;31254;51.680;5.394;2023-03-25T13:08:27;100286.00;;;13.01;67.17
45523;BME280;31254;51.680;5.394;2023-03-25T13:11:01;100339.94;;;13.55;66.86
45523;BME280;31254;51.680;5.394;2023-03-25T13:13:37;100374.91;;;13.76;67.00
45523;BME280;31254;51.680;5.394;2023-03-25T13:16:19;100368.38;;;13.54;67.43
45523;BME280;31254;51.680;5.394;2023-03-25T13:21:28;100371.03;;;13.39;67.62
45523;BME280;31254;51.680;5.394;2023-03-25T13:24:13;100354.78;;;13.29;68.17
45523;BME280;31254;51.680;5.394;2023-03-25T13:26:44;100351.50;;;13.42;67.24
45523;BME280;31254;51.680;5.394;2023-03-25T13:29:28;100379.56;;;13.52;67.21
45523;BME280;31254;51.680;5.394;2023-03-25T13:32:02;100345.78;;;13.52;66.76
45523;BME280;31254;51.680;5.394;2023-03-25T13:34:48;100350.72;;;13.57;66.26
45523;BME280;31254;51.680;5.394;2023-03-25T13:37:28;100348.94;;;13.72;66.20
45523;BME280;31254;51.680;5.394;2023-03-25T13:40:04;100353.97;;;13.83;65.84
45523;BME280;31254;51.680;5.394;2023-03-25T13:45:19;100351.47;;;13.97;65.57
45523;BME280;31254;51.680;5.394;2023-03-25T13:47:53;100354.56;;;13.94;64.51
45523;BME280;31254;51.680;5.394;2023-03-25T13:50:30;100348.16;;;13.78;64.18
45523;BME280;31254;51.680;5.394;2023-03-25T13:53:57;100342.22;;;13.75;63.96
45523;BME280;31254;51.680;5.394;2023-03-25T14:09:51;100388.31;;;13.48;62.81
45523;BME280;31254;51.680;5.394;2023-03-25T14:15:03;100389.00;;;13.73;62.67
45523;BME280;31254;51.680;5.394;2023-03-25T14:17:35;100366.16;;;13.81;62.62
45523;BME280;31254;51.680;5.394;2023-03-25T14:20:04;100383.81;;;14.01;62.38
45523;BME280;31254;51.680;5.394;2023-03-25T14:22:38;100396.66;;;14.01;62.41
45523;BME280;31254;51.680;5.394;2023-03-25T14:27:58;100380.78;;;13.96;62.37
45523;BME280;31254;51.680;5.394;2023-03-25T14:30:29;100396.91;;;13.91;62.52
45523;BME280;31254;51.680;5.394;2023-03-25T14:32:58;100410.84;;;13.81;62.46
45523;BME280;31254;51.680;5.394;2023-03-25T14:38:48;100407.09;;;13.82;62.96
45523;BME280;31254;51.680;5.394;2023-03-25T14:41:08;100407.09;;;13.82;62.40
45523;BME280;31254;51.680;5.394;2023-03-25T14:43:37;100390.59;;;13.67;61.93
45523;BME280;31254;51.680;5.394;2023-03-25T14:56:35;100433.44;;;13.60;62.51
45523;BME280;31254;51.680;5.394;2023-03-25T14:59:12;100428.88;;;13.52;61.58
45523;BME280;31254;51.680;5.394;2023-03-25T15:01:44;100415.25;;;13.67;61.71
45523;BME280;31254;51.680;5.394;2023-03-25T15:04:22;100415.91;;;13.93;61.29
45523;BME280;31254;51.680;5.394;2023-03-25T15:06:53;100420.69;;;13.99;61.26
45523;BME280;31254;51.680;5.394;2023-03-25T15:09:24;100429.50;;;13.86;61.56
45523;BME280;31254;51.680;5.394;2023-03-25T15:11:59;100419.31;;;13.71;61.45
45523;BME280;31254;51.680;5.394;2023-03-25T15:14:30;100429.13;;;13.66;61.97
45523;BME280;31254;51.680;5.394;2023-03-25T15:17:04;100438.44;;;13.57;62.60
45523;BME280;31254;51.680;5.394;2023-03-25T15:20:37;100435.50;;;13.58;62.39
45523;BME280;31254;51.680;5.394;2023-03-25T15:22:41;100365.03;;;13.04;61.93
45523;BME280;31254;51.680;5.394;2023-03-25T15:25:16;100376.13;;;13.11;62.00
45523;BME280;31254;51.680;5.394;2023-03-25T15:27:58;100457.78;;;13.55;62.32
45523;BME280;31254;51.680;5.394;2023-03-25T15:42:02;100453.53;;;13.52;61.61
45523;BME280;31254;51.680;5.394;2023-03-25T15:44:46;100443.59;;;13.51;61.04
45523;BME280;31254;51.680;5.394;2023-03-25T15:47:23;100453.84;;;13.58;61.14
45523;BME280;31254;51.680;5.394;2023-03-25T15:55:38;100454.72;;;13.50;61.47
45523;BME280;31254;51.680;5.394;2023-03-25T15:58:13;100434.75;;;13.33;61.15
45523;BME280;31254;51.680;5.394;2023-03-25T16:00:46;100459.25;;;13.34;61.28